Time;durP1;ratioP1;P1;durP2;ratioP2;P2;SDS_P1;SDS_P2;PMS_P1;PMS_P2;Temp;Humidity;BMP_temperature;BMP_pressure;BME280_temperature;BME280_humidity;BME280_pressure;Samples;Min_cycle;Max_cycle;Signal;HPM_P1;HPM_P2
2022/06/23 04:14:22;;;;;;;4.67;3.47;;;;;;;18.86;70.11;100045.69;5595968;31;184585;-89
2022/06/23 04:17:45;;;;;;;7.00;3.00;;;;;;;18.79;68.81;100046.38;5580645;32;32808;-87
2022/06/23 04:20:54;;;;;;;4.45;2.92;;;;;;;18.79;69.73;100055.28;5582356;32;34604;-91
2022/06/23 04:24:02;;;;;;;4.10;3.20;;;;;;;18.97;68.39;100057.31;5581612;31;35054;-87
2022/06/23 04:27:14;;;;;;;3.58;2.87;;;;;;;19.18;64.06;100067.97;5576174;31;34323;-87
2022/06/23 04:30:27;;;;;;;6.32;2.78;;;;;;;19.35;65.88;100065.56;5577721;31;33862;-87
2022/06/23 04:33:34;;;;;;;4.25;2.97;;;;;;;19.57;64.34;100077.91;5582883;31;34158;-87
2022/06/23 04:36:43;;;;;;;3.15;2.90;;;;;;;19.65;60.13;100083.41;5582895;32;34211;-87
2022/06/23 04:39:53;;;;;;;2.55;2.35;;;;;;;20.11;56.32;100084.66;5630370;26;34347;-89
2022/06/23 04:43:03;;;;;;;6.65;2.90;;;;;;;20.42;57.39;100079.00;5640457;26;34349;-89
2022/06/23 04:49:56;;;;;;;2.72;2.53;;;;;;;21.02;56.65;100084.97;5598131;26;20100;-90
2022/06/23 04:53:00;;;;;;;14.65;2.80;;;;;;;21.44;54.92;100091.63;5562703;26;33734;-90
2022/06/23 04:56:21;;;;;;;3.65;2.60;;;;;;;22.04;51.52;100099.06;5551838;32;34569;-90
2022/06/23 05:06:49;;;;;;;4.85;2.80;;;;;;;22.34;48.70;100102.25;4017896;26;20085;-89
2022/06/23 05:10:00;;;;;;;5.40;2.60;;;;;;;22.40;49.83;100111.59;5560678;32;33678;-89
2022/06/23 05:13:13;;;;;;;5.45;2.95;;;;;;;22.73;50.56;100119.06;5578265;31;35288;-88
2022/06/23 05:19:59;;;;;;;5.10;2.67;;;;;;;23.21;49.08;100126.62;4988793;26;20095;-90
2022/06/23 05:23:03;;;;;;;3.67;2.92;;;;;;;24.28;48.64;100112.31;5530597;32;34149;-89
2022/06/23 05:26:12;;;;;;;2.72;2.30;;;;;;;25.48;45.52;100125.03;5593192;26;33772;-89
2022/06/23 05:29:22;;;;;;;6.12;2.65;;;;;;;26.83;41.37;100125.25;5541383;32;33853;-89
2022/06/23 05:42:49;;;;;;;3.50;2.00;;;;;;;32.99;27.88;100140.81;5591306;26;34593;-90
2022/06/23 05:45:55;;;;;;;3.62;1.92;;;;;;;33.95;25.83;100147.44;5549010;32;34597;-90
2022/06/23 06:00:22;;;;;;;4.35;1.87;;;;;;;35.42;21.94;100156.66;5500643;32;32229;-89
2022/06/23 08:45:18;;;;;;;5.78;2.00;;;;;;;31.86;24.96;100213.87;5466837;32;20085;-88
2022/06/23 08:48:42;;;;;;;1.73;1.50;;;;;;;31.59;22.44;100214.03;5459398;32;34122;-89
2022/06/23 08:52:09;;;;;;;2.75;1.65;;;;;;;31.81;23.56;100213.66;5448914;32;32678;-88
2022/06/23 08:55:26;;;;;;;3.22;1.52;;;;;;;32.90;21.64;100211.66;5453485;32;35230;-87
2022/06/23 08:58:56;;;;;;;2.37;1.70;;;;;;;33.40;22.16;100207.06;5452537;32;33984;-92
2022/06/23 09:02:23;;;;;;;6.50;1.87;;;;;;;33.00;21.95;100202.91;5458053;32;33740;-88
2022/06/23 09:06:06;;;;;;;2.10;1.83;;;;;;;33.63;21.76;100211.00;5453404;32;33903;-87
2022/06/23 09:09:24;;;;;;;4.62;1.80;;;;;;;32.67;22.90;100210.44;5453127;32;34254;-88
2022/06/23 09:12:47;;;;;;;4.90;1.90;;;;;;;33.57;21.83;100207.25;5458711;32;34092;-88
2022/06/23 09:16:16;;;;;;;5.25;1.80;;;;;;;33.49;21.82;100205.66;5472128;32;34498;-88
2022/06/23 09:19:46;;;;;;;2.10;1.90;;;;;;;33.30;22.20;100211.22;5468350;32;34146;-88
2022/06/23 09:22:55;;;;;;;2.78;1.60;;;;;;;33.56;21.36;100211.94;5472041;32;35018;-91
2022/06/23 09:26:07;;;;;;;1.92;1.65;;;;;;;33.56;21.64;100202.84;5461418;32;34060;-87
2022/06/23 09:29:32;;;;;;;1.83;1.67;;;;;;;32.10;21.85;100192.16;5463281;32;34472;-87
2022/06/23 09:32:59;;;;;;;3.05;1.70;;;;;;;33.24;20.68;100187.41;5470474;32;34221;-89
2022/06/23 09:36:20;;;;;;;2.75;1.70;;;;;;;34.68;20.11;100199.53;5468421;32;34449;-88
2022/06/23 09:39:46;;;;;;;4.68;1.60;;;;;;;35.39;19.08;100201.25;5472179;32;34335;-88
2022/06/23 09:43:25;;;;;;;2.67;1.52;;;;;;;36.42;18.13;100193.06;5471949;32;34092;-87
2022/06/23 09:46:52;;;;;;;4.97;1.40;;;;;;;34.09;19.54;100200.38;5464599;32;34447;-88
2022/06/23 09:50:14;;;;;;;2.75;1.50;;;;;;;34.48;19.22;100197.16;5453809;32;35000;-89
2022/06/23 09:53:28;;;;;;;1.92;1.67;;;;;;;35.93;17.76;100191.75;5453669;32;34028;-89
2022/06/23 09:56:31;;;;;;;1.87;1.67;;;;;;;34.06;18.60;100192.56;5453664;32;34830;-89
2022/06/23 09:59:59;;;;;;;1.83;1.60;;;;;;;32.83;20.15;100189.75;5455613;32;33741;-88
2022/06/23 10:03:21;;;;;;;6.07;1.80;;;;;;;33.47;19.48;100196.81;5455070;32;34036;-88
2022/06/23 10:06:27;;;;;;;1.83;1.52;;;;;;;32.89;19.69;100201.75;5478308;32;34274;-90
2022/06/23 10:09:41;;;;;;;2.58;1.50;;;;;;;32.17;20.69;100201.19;5463252;32;34010;-90
2022/06/23 10:13:17;;;;;;;2.45;1.40;;;;;;;31.82;20.67;100207.13;5456641;32;34480;-86
2022/06/23 10:16:41;;;;;;;1.80;1.70;;;;;;;30.29;21.58;100206.41;5468839;32;34508;-88
2022/06/23 10:19:53;;;;;;;8.77;1.65;;;;;;;29.97;22.70;100203.41;5477524;32;34125;-88
2022/06/23 10:22:55;;;;;;;2.47;1.73;;;;;;;31.06;22.64;100199.50;5455832;32;34362;-86
2022/06/23 10:26:01;;;;;;;3.05;1.70;;;;;;;30.55;22.45;100204.66;5464079;32;34530;-87
2022/06/23 10:29:27;;;;;;;1.73;1.60;;;;;;;31.56;21.43;100200.75;5468830;32;33843;-87
2022/06/23 10:32:33;;;;;;;5.03;1.90;;;;;;;32.54;19.69;100195.78;5451721;32;34144;-87
2022/06/23 10:36:06;;;;;;;2.67;1.83;;;;;;;32.29;21.15;100194.97;5457458;32;35023;-87
2022/06/23 10:39:40;;;;;;;4.40;1.83;;;;;;;31.38;21.59;100193.28;5456003;32;34380;-87
2022/06/23 10:42:52;;;;;;;4.05;2.00;;;;;;;30.00;22.93;100203.00;5463969;32;33926;-87
2022/06/23 10:46:05;;;;;;;3.85;1.90;;;;;;;28.82;24.73;100200.28;5475288;32;34134;-87
2022/06/23 10:49:20;;;;;;;2.00;1.77;;;;;;;28.91;24.23;100201.00;5463833;32;34550;-88
2022/06/23 10:52:46;;;;;;;2.28;1.75;;;;;;;29.50;23.25;100201.44;5471076;32;34895;-88
2022/06/23 10:55:58;;;;;;;2.17;1.73;;;;;;;30.09;22.91;100203.66;5470590;32;34504;-87
2022/06/23 10:59:20;;;;;;;2.62;1.45;;;;;;;29.83;23.45;100200.66;5452976;32;34221;-87
2022/06/23 11:02:51;;;;;;;3.42;1.70;;;;;;;30.20;21.99;100200.28;5471803;32;33697;-86
2022/06/23 11:06:22;;;;;;;5.30;1.80;;;;;;;30.33;22.14;100199.47;5455566;32;32713;-88
2022/06/23 11:09:45;;;;;;;2.62;1.67;;;;;;;32.12;21.22;100195.50;5468630;32;33954;-88
2022/06/23 11:13:09;;;;;;;3.53;1.73;;;;;;;33.15;19.64;100188.78;5458857;32;33838;-85
2022/06/23 11:16:30;;;;;;;3.60;1.65;;;;;;;32.72;20.26;100180.38;5471140;32;34608;-85
2022/06/23 11:19:57;;;;;;;1.85;1.70;;;;;;;32.63;19.94;100182.59;5448984;32;33906;-86
2022/06/23 11:23:18;;;;;;;1.75;1.62;;;;;;;31.51;21.23;100184.97;5472659;32;34119;-85
2022/06/23 11:26:45;;;;;;;3.28;1.67;;;;;;;30.71;21.37;100186.16;5451691;32;34244;-84
2022/06/23 11:30:02;;;;;;;4.00;1.60;;;;;;;31.26;21.32;100179.41;5452463;32;34658;-84
2022/06/23 11:33:35;;;;;;;1.75;1.50;;;;;;;31.68;20.80;100185.28;5466930;32;34926;-85
2022/06/23 11:37:04;;;;;;;4.18;1.60;;;;;;;31.38;21.34;100179.56;5439684;32;32714;-85
2022/06/23 11:40:19;;;;;;;3.97;1.42;;;;;;;31.05;21.37;100175.91;5463860;32;34246;-85
2022/06/23 11:44:03;;;;;;;5.87;1.75;;;;;;;31.23;21.55;100175.22;5472038;32;33738;-85
2022/06/23 11:47:06;;;;;;;2.15;1.50;;;;;;;31.35;21.75;100180.00;5452593;32;34207;-84
2022/06/23 11:50:09;;;;;;;2.03;1.67;;;;;;;31.17;22.07;100178.81;5452927;32;33804;-85
2022/06/23 11:53:43;;;;;;;1.42;1.33;;;;;;;30.86;20.86;100178.50;5451948;32;33967;-85
2022/06/23 11:56:59;;;;;;;3.00;1.85;;;;;;;30.64;21.94;100177.91;5443866;32;34007;-85
2022/06/23 12:00:15;;;;;;;3.58;1.70;;;;;;;30.13;22.93;100185.78;5467574;32;33604;-85
2022/06/23 12:03:43;;;;;;;1.92;1.25;;;;;;;30.02;24.35;100184.50;5453918;32;32907;-86
2022/06/23 12:07:16;;;;;;;6.78;1.70;;;;;;;30.16;24.24;100188.09;5453985;32;32845;-86
2022/06/23 12:10:25;;;;;;;3.12;2.10;;;;;;;30.45;24.41;100188.69;5459564;32;34662;-87
2022/06/23 12:13:31;;;;;;;2.72;1.85;;;;;;;30.07;23.97;100192.06;5441857;32;33266;-86
2022/06/23 12:16:41;;;;;;;3.17;1.83;;;;;;;29.99;24.87;100190.38;5468327;32;33646;-84
2022/06/23 12:19:53;;;;;;;2.53;1.75;;;;;;;29.83;23.83;100188.91;5468836;32;34850;-84
2022/06/23 12:23:01;;;;;;;3.20;1.75;;;;;;;29.45;24.53;100193.84;5466596;32;35168;-86
2022/06/23 12:26:14;;;;;;;2.30;1.70;;;;;;;29.17;24.72;100192.06;5455418;32;33656;-86
2022/06/23 12:29:25;;;;;;;2.55;1.73;;;;;;;28.91;26.34;100182.72;5465847;32;34042;-86
2022/06/23 12:32:41;;;;;;;5.62;1.75;;;;;;;29.14;25.53;100191.62;5463034;32;35740;-85
2022/06/23 12:36:05;;;;;;;4.85;1.90;;;;;;;29.85;24.95;100184.91;5470805;32;34179;-86
2022/06/23 12:39:14;;;;;;;2.30;1.73;;;;;;;29.56;24.90;100189.69;5452399;32;32634;-86
2022/06/23 12:42:28;;;;;;;1.90;1.75;;;;;;;29.03;25.51;100191.19;5470859;32;33641;-85
2022/06/23 12:45:47;;;;;;;4.53;1.70;;;;;;;28.74;26.20;100186.78;5471271;32;33873;-86
2022/06/23 12:49:04;;;;;;;;;;;;;;;28.88;26.39;100188.59;5471632;32;34513;-85
2022/06/23 12:52:20;;;;;;;5.50;2.30;;;;;;;28.95;25.11;100177.69;5470881;32;34295;-87
2022/06/23 12:55:35;;;;;;;3.45;1.67;;;;;;;29.05;26.62;100183.63;5464060;32;35057;-85
2022/06/23 12:58:46;;;;;;;5.60;1.85;;;;;;;29.36;25.79;100177.84;5458947;32;32606;-85
2022/06/23 13:09:28;;;;;;;1.80;1.70;;;;;;;29.42;25.73;100177.84;4122092;27;20108;-88
2022/06/23 13:42:13;;;;;;;2.12;1.90;;;;;;;29.24;23.98;100163.94;5500990;27;20097;-88
2022/06/23 14:11:44;;;;;;;3.80;1.77;;;;;;;28.72;24.66;100146.06;3243022;27;20118;-89
2022/06/23 14:14:59;;;;;;;1.92;1.70;;;;;;;28.32;23.94;100143.09;5473196;32;33859;-90
2022/06/23 14:37:01;;;;;;;1.90;1.65;;;;;;;28.75;22.80;100134.75;968381;27;20453;31
2022/06/23 14:52:08;;;;;;;1.98;1.60;;;;;;;28.74;22.75;100124.03;5514502;27;20464;-89
2022/06/23 15:02:44;;;;;;;2.97;1.67;;;;;;;28.51;22.12;100108.81;3188825;27;20431;-89
2022/06/23 15:05:55;;;;;;;2.47;1.42;;;;;;;28.32;22.21;100105.78;5518636;27;33784;-90
2022/06/23 15:09:19;;;;;;;2.08;1.70;;;;;;;28.39;21.96;100103.06;5517910;27;33686;-89
